createdAt,value
2022-09-14T00:00:14.185Z,7.88
2022-09-14T00:01:26.623Z,7.95
2022-09-14T00:02:07.218Z,8.11
2022-09-14T00:02:47.208Z,7.90
2022-09-14T00:03:28.073Z,8.13
2022-09-14T00:04:13.038Z,8.50
2022-09-14T00:04:53.033Z,8.43
2022-09-14T00:05:27.016Z,8.21
2022-09-14T00:06:18.951Z,8.26
2022-09-14T00:06:54.025Z,8.41
2022-09-14T00:07:40.995Z,8.15
2022-09-14T00:08:14.982Z,7.95
2022-09-14T00:09:05.026Z,7.94
2022-09-14T00:09:39.223Z,8.16
2022-09-14T00:10:20.055Z,8.56
2022-09-14T00:11:00.065Z,8.30
2022-09-14T00:11:43.096Z,8.21
2022-09-14T00:12:23.018Z,8.11
2022-09-14T00:13:04.009Z,8.32
2022-09-14T00:13:46.056Z,8.18
2022-09-14T00:14:26.976Z,8.29
2022-09-14T00:15:07.720Z,8.36
2022-09-14T00:15:53.025Z,8.25
2022-09-14T00:16:38.076Z,8.01
2022-09-14T00:17:18.997Z,8.29
2022-09-14T00:17:59.070Z,8.18
2022-09-14T00:18:40.992Z,8.02
2022-09-14T00:19:39.017Z,7.99
2022-09-14T00:20:32.971Z,7.94
2022-09-14T00:21:16.274Z,7.85
2022-09-14T00:22:06.072Z,7.84
2022-09-14T00:22:46.000Z,7.53
2022-09-14T00:23:26.021Z,7.94
2022-09-14T00:24:05.946Z,7.79
2022-09-14T00:24:46.038Z,7.66
2022-09-14T00:25:26.942Z,7.70
2022-09-14T00:26:23.924Z,7.39
2022-09-14T00:27:17.985Z,7.46
2022-09-14T00:28:11.962Z,7.38
2022-09-14T00:29:10.912Z,7.81
2022-09-14T00:30:04.982Z,7.86
2022-09-14T00:30:59.028Z,7.91
2022-09-14T00:31:47.105Z,7.79
2022-09-14T00:32:21.053Z,7.85
2022-09-14T00:33:07.913Z,8.18
2022-09-14T00:33:43.047Z,7.93
2022-09-14T00:34:29.988Z,7.65
2022-09-14T00:35:04.382Z,7.95
2022-09-14T00:35:51.017Z,8.11
2022-09-14T00:36:32.335Z,7.97
2022-09-14T00:37:12.019Z,7.86
2022-09-14T00:37:56.085Z,7.91
2022-09-14T00:38:36.016Z,7.76
2022-09-14T00:39:15.984Z,7.74
2022-09-14T00:39:57.011Z,8.01
2022-09-14T00:40:37.048Z,7.93
2022-09-14T00:41:27.055Z,7.50
2022-09-14T00:42:07.113Z,7.59
2022-09-14T00:42:47.998Z,7.75
2022-09-14T00:43:28.037Z,7.55
2022-09-14T00:44:10.005Z,7.76
2022-09-14T00:44:43.583Z,7.95
2022-09-14T00:45:34.984Z,7.94
2022-09-14T00:46:08.650Z,8.26
2022-09-14T00:47:05.946Z,7.60
2022-09-14T00:47:39.813Z,7.86
2022-09-14T00:48:20.992Z,7.80
2022-09-14T00:48:55.116Z,8.01
2022-09-14T00:49:38.504Z,8.07
2022-09-14T00:50:19.952Z,8.13
2022-09-14T00:50:54.028Z,8.26
2022-09-14T00:51:30.604Z,8.40
2022-09-14T00:52:28.983Z,7.90
2022-09-14T00:53:03.017Z,7.69
2022-09-14T00:53:43.928Z,7.66
2022-09-14T00:54:24.045Z,7.90
2022-09-14T00:55:11.969Z,8.07
2022-09-14T00:55:54.088Z,8.04
2022-09-14T00:56:34.977Z,7.84
2022-09-14T00:57:15.049Z,8.21
2022-09-14T00:57:57.975Z,8.20
2022-09-14T00:58:39.077Z,7.96
2022-09-14T00:59:33.031Z,7.89
2022-09-14T01:00:16.104Z,7.90
2022-09-14T01:00:55.988Z,8.14
2022-09-14T01:01:36.061Z,8.34
2022-09-14T01:02:19.030Z,7.99
2022-09-14T01:03:00.876Z,8.06
2022-09-14T01:03:40.994Z,8.26
2022-09-14T01:04:22.389Z,8.30
2022-09-14T01:05:02.975Z,8.15
2022-09-14T01:06:02.037Z,8.06
2022-09-14T01:07:02.926Z,8.25
2022-09-14T01:08:07.097Z,8.34
2022-09-14T01:09:10.873Z,8.74
2022-09-14T01:10:37.987Z,8.31
2022-09-14T01:11:40.385Z,7.94
2022-09-14T01:12:55.943Z,8.01
2022-09-14T01:14:12.057Z,8.23
2022-09-14T01:15:38.969Z,8.10
2022-09-14T01:16:31.219Z,8.24
2022-09-14T01:17:35.941Z,8.41
2022-09-14T01:18:16.857Z,8.26
2022-09-14T01:19:12.941Z,8.23
2022-09-14T01:20:16.789Z,8.00
2022-09-14T01:21:19.981Z,8.16
2022-09-14T01:21:56.114Z,8.27
2022-09-14T01:23:16.957Z,8.34
2022-09-14T01:24:02.353Z,8.27
2022-09-14T01:25:11.954Z,8.21
2022-09-14T01:26:39.015Z,8.19
2022-09-14T01:27:44.087Z,8.26
2022-09-14T01:28:52.962Z,7.97
2022-09-14T01:29:50.014Z,7.86
2022-09-14T01:30:30.925Z,8.19
2022-09-14T01:31:21.043Z,8.73
2022-09-14T01:32:09.961Z,8.48
2022-09-14T01:33:09.037Z,8.59
2022-09-14T01:33:57.929Z,8.43
2022-09-14T01:35:15.934Z,8.18
2022-09-14T01:36:03.906Z,8.43
2022-09-14T01:36:47.006Z,8.38
2022-09-14T01:37:39.897Z,8.61
2022-09-14T01:38:24.167Z,8.44
2022-09-14T01:39:05.892Z,8.20
2022-09-14T01:39:53.165Z,8.38
2022-09-14T01:40:42.929Z,8.25
2022-09-14T01:41:31.335Z,8.51
2022-09-14T01:42:12.907Z,8.50
2022-09-14T01:43:04.981Z,8.38
2022-09-14T01:43:42.368Z,8.14
2022-09-14T01:44:49.940Z,8.41
2022-09-14T01:45:31.108Z,8.32
2022-09-14T01:46:31.912Z,8.54
2022-09-14T01:47:20.543Z,8.38
2022-09-14T01:48:08.012Z,8.20
2022-09-14T01:49:06.028Z,8.31
2022-09-14T01:49:52.908Z,8.38
2022-09-14T01:50:40.986Z,8.30
2022-09-14T01:51:25.889Z,8.36
2022-09-14T01:52:31.980Z,8.45
2022-09-14T01:53:26.961Z,8.63
2022-09-14T01:54:23.132Z,8.56
2022-09-14T01:55:26.904Z,8.86
2022-09-14T01:56:32.159Z,9.10
2022-09-14T01:58:11.932Z,8.46
2022-09-14T01:58:57.954Z,8.26
2022-09-14T01:59:39.943Z,8.32
2022-09-14T02:00:28.952Z,8.36
2022-09-14T02:01:04.077Z,8.40
2022-09-14T02:02:01.109Z,8.25
2022-09-14T02:02:46.954Z,8.25
2022-09-14T02:03:48.960Z,8.10
2022-09-14T02:04:41.930Z,8.13
2022-09-14T02:06:02.829Z,8.09
2022-09-14T02:06:59.945Z,8.29
2022-09-14T02:07:53.950Z,8.30
2022-09-14T02:08:47.895Z,8.57
2022-09-14T02:09:41.924Z,8.69
2022-09-14T02:10:35.896Z,8.54
2022-09-14T02:11:29.893Z,8.88
2022-09-14T02:12:23.941Z,9.00
2022-09-14T02:13:17.992Z,8.94
2022-09-14T02:14:11.807Z,8.68
2022-09-14T02:14:59.935Z,8.63
2022-09-14T02:15:33.984Z,8.39
2022-09-14T02:16:20.984Z,8.51
2022-09-14T02:16:55.924Z,8.77
2022-09-14T02:17:43.913Z,8.41
2022-09-14T02:18:17.946Z,8.27
2022-09-14T02:19:07.912Z,8.24
2022-09-14T02:19:48.009Z,8.45
2022-09-14T02:20:45.912Z,8.48
2022-09-14T02:21:34.307Z,8.88
2022-09-14T02:22:14.902Z,9.65
2022-09-14T02:22:54.913Z,9.35
2022-09-14T02:23:35.903Z,9.18
2022-09-14T02:24:17.987Z,9.35
2022-09-14T02:24:58.877Z,8.90
2022-09-14T02:25:41.224Z,8.95
2022-09-14T02:26:22.900Z,8.96
2022-09-14T02:27:03.941Z,8.70
2022-09-14T02:27:44.894Z,8.50
2022-09-14T02:28:24.981Z,8.93
2022-09-14T02:29:05.868Z,8.86
2022-09-14T02:29:45.925Z,8.95
2022-09-14T02:30:26.932Z,8.88
2022-09-14T02:31:32.008Z,8.66
2022-09-14T02:33:01.813Z,8.69
2022-09-14T02:34:11.101Z,8.71
2022-09-14T02:35:50.873Z,8.60
2022-09-14T02:37:24.943Z,8.96
2022-09-14T02:38:36.898Z,9.45
2022-09-14T02:39:37.868Z,10.11
2022-09-14T02:40:54.904Z,9.91
2022-09-14T02:42:13.880Z,9.71
2022-09-14T02:43:12.896Z,9.41
2022-09-14T02:44:08.979Z,9.25
2022-09-14T02:44:58.895Z,9.61
2022-09-14T02:46:10.018Z,9.30
2022-09-14T02:47:11.847Z,9.25
2022-09-14T02:48:42.891Z,9.54
2022-09-14T02:49:54.845Z,9.84
2022-09-14T02:51:04.832Z,9.29
2022-09-14T02:52:46.903Z,9.42
2022-09-14T02:53:49.896Z,9.41
2022-09-14T02:54:58.848Z,8.89
2022-09-14T02:55:59.844Z,9.10
2022-09-14T02:56:54.075Z,9.31
2022-09-14T02:58:22.889Z,9.23
2022-09-14T02:59:10.889Z,9.15
2022-09-14T02:59:44.828Z,9.05
2022-09-14T03:00:31.907Z,8.80
2022-09-14T03:01:06.114Z,8.74
2022-09-14T03:01:52.875Z,9.05
2022-09-14T03:02:26.968Z,9.06
2022-09-14T03:03:15.794Z,9.01
2022-09-14T03:03:49.932Z,8.86
2022-09-14T03:04:29.914Z,8.91
2022-09-14T03:05:10.905Z,9.10
2022-09-14T03:05:51.836Z,9.57
2022-09-14T03:06:31.964Z,9.56
2022-09-14T03:07:11.856Z,9.29
2022-09-14T03:07:51.921Z,9.11
2022-09-14T03:08:33.798Z,9.11
2022-09-14T03:09:13.956Z,8.93
2022-09-14T03:09:54.930Z,9.15
2022-09-14T03:10:35.943Z,9.52
2022-09-14T03:11:16.836Z,9.35
2022-09-14T03:11:57.975Z,8.86
2022-09-14T03:12:37.848Z,8.80
2022-09-14T03:13:18.849Z,9.18
2022-09-14T03:13:58.804Z,9.11
2022-09-14T03:14:38.842Z,9.06
2022-09-14T03:15:18.865Z,8.96
2022-09-14T03:15:58.913Z,9.11
2022-09-14T03:16:38.802Z,9.20
2022-09-14T03:17:32.785Z,9.05
2022-09-14T03:18:26.847Z,8.98
2022-09-14T03:19:20.803Z,9.04
2022-09-14T03:20:15.943Z,8.94
2022-09-14T03:20:55.812Z,9.04
2022-09-14T03:21:35.877Z,8.99
2022-09-14T03:22:15.740Z,9.10
2022-09-14T03:22:55.937Z,9.04
2022-09-14T03:23:35.872Z,9.02
2022-09-14T03:24:15.916Z,8.94
2022-09-14T03:24:55.814Z,9.21
2022-09-14T03:25:37.378Z,9.32
2022-09-14T03:26:23.853Z,9.04
2022-09-14T03:27:03.869Z,8.70
2022-09-14T03:27:44.757Z,8.73
2022-09-14T03:28:24.882Z,8.82
2022-09-14T03:29:05.814Z,8.94
2022-09-14T03:29:46.698Z,9.14
2022-09-14T03:30:27.749Z,8.91
2022-09-14T03:31:13.039Z,8.81
2022-09-14T03:31:52.968Z,8.79
2022-09-14T03:32:32.927Z,8.86
2022-09-14T03:33:13.752Z,8.75
2022-09-14T03:33:55.237Z,9.00
2022-09-14T03:34:34.805Z,9.01
2022-09-14T03:35:15.876Z,8.94
2022-09-14T03:35:55.756Z,8.68
2022-09-14T03:36:37.897Z,9.10
2022-09-14T03:37:17.824Z,9.11
2022-09-14T03:37:57.929Z,8.86
2022-09-14T03:38:37.767Z,9.50
2022-09-14T03:39:17.951Z,9.98
2022-09-14T03:39:58.839Z,9.55
2022-09-14T03:40:38.949Z,9.68
2022-09-14T03:41:20.021Z,9.43
2022-09-14T03:41:59.855Z,8.91
2022-09-14T03:42:39.880Z,9.11
2022-09-14T03:43:21.695Z,8.73
2022-09-14T03:44:02.826Z,8.75
2022-09-14T03:44:42.897Z,8.80
2022-09-14T03:45:24.799Z,8.64
2022-09-14T03:46:04.841Z,8.82
2022-09-14T03:46:45.865Z,9.13
2022-09-14T03:47:26.229Z,9.16
2022-09-14T03:48:05.814Z,8.89
2022-09-14T03:48:45.778Z,8.64
2022-09-14T03:49:26.842Z,8.94
2022-09-14T03:50:07.921Z,9.11
2022-09-14T03:50:48.834Z,9.14
2022-09-14T03:51:29.895Z,9.69
2022-09-14T03:52:10.851Z,9.66
2022-09-14T03:52:50.776Z,9.36
2022-09-14T03:53:30.808Z,9.00
2022-09-14T03:54:10.989Z,9.18
2022-09-14T03:54:50.797Z,9.41
2022-09-14T03:55:32.797Z,9.48
2022-09-14T03:56:15.797Z,9.34
2022-09-14T03:56:58.860Z,9.21
2022-09-14T03:57:39.761Z,9.14
2022-09-14T03:58:19.822Z,9.38
2022-09-14T03:58:59.812Z,9.68
2022-09-14T03:59:43.745Z,9.50
2022-09-14T04:00:24.717Z,9.15
2022-09-14T04:01:18.181Z,9.63
2022-09-14T04:01:58.883Z,9.90
2022-09-14T04:02:38.981Z,9.64
2022-09-14T04:03:19.109Z,9.13
2022-09-14T04:04:07.041Z,9.52
2022-09-14T04:05:00.803Z,9.94
2022-09-14T04:05:57.772Z,9.90
2022-09-14T04:06:51.793Z,9.59
2022-09-14T04:07:45.768Z,9.35
2022-09-14T04:08:39.841Z,9.14
2022-09-14T04:09:26.823Z,9.00
2022-09-14T04:10:00.807Z,8.80
2022-09-14T04:10:47.736Z,9.02
2022-09-14T04:11:31.514Z,9.11
2022-09-14T04:12:18.768Z,9.30
2022-09-14T04:12:52.807Z,9.30
2022-09-14T04:13:39.710Z,9.41
2022-09-14T04:14:14.013Z,9.63
2022-09-14T04:14:53.800Z,9.86
2022-09-14T04:15:33.794Z,9.95
2022-09-14T04:16:14.786Z,10.11
2022-09-14T04:16:54.795Z,9.98
2022-09-14T04:17:35.720Z,9.74
2022-09-14T04:18:15.789Z,10.10
2022-09-14T04:18:55.736Z,10.02
2022-09-14T04:19:37.537Z,10.24
2022-09-14T04:20:18.719Z,9.90
2022-09-14T04:21:08.029Z,8.98
2022-09-14T04:21:48.689Z,9.10
2022-09-14T04:22:28.772Z,9.15
2022-09-14T04:23:09.733Z,8.63
2022-09-14T04:24:49.700Z,8.68
2022-09-14T04:25:36.806Z,9.05
2022-09-14T04:26:35.730Z,8.74
2022-09-14T04:27:29.687Z,8.70
2022-09-14T04:28:23.725Z,8.96
2022-09-14T04:29:18.697Z,8.96
2022-09-14T04:30:12.701Z,8.25
2022-09-14T04:31:07.764Z,8.71
2022-09-14T04:31:41.872Z,8.79
2022-09-14T04:32:33.463Z,9.07
2022-09-14T04:33:07.750Z,8.88
2022-09-14T04:33:56.709Z,8.73
2022-09-14T04:34:30.791Z,8.64
2022-09-14T04:35:17.713Z,8.76
2022-09-14T04:35:51.761Z,8.99
2022-09-14T04:36:37.721Z,8.91
2022-09-14T04:37:17.763Z,9.10
2022-09-14T04:37:57.717Z,9.52
2022-09-14T04:38:39.788Z,9.51
2022-09-14T04:39:20.702Z,8.98
2022-09-14T04:40:00.831Z,8.99
2022-09-14T04:40:40.684Z,9.15
2022-09-14T04:41:24.879Z,9.16
2022-09-14T04:42:04.721Z,8.95
2022-09-14T04:42:44.768Z,8.75
2022-09-14T04:43:24.680Z,8.80
2022-09-14T04:44:05.820Z,9.01
2022-09-14T04:44:46.691Z,9.10
2022-09-14T04:45:27.050Z,8.91
2022-09-14T04:46:16.739Z,9.02
2022-09-14T04:46:56.845Z,9.06
2022-09-14T04:47:37.713Z,9.25
2022-09-14T04:48:17.770Z,9.35
2022-09-14T04:48:58.705Z,9.40
2022-09-14T04:49:38.812Z,9.36
2022-09-14T04:50:19.670Z,9.75
2022-09-14T04:50:59.781Z,9.74
2022-09-14T04:51:41.693Z,9.49
2022-09-14T04:52:21.997Z,9.60
2022-09-14T04:53:01.717Z,9.95
2022-09-14T04:53:44.843Z,9.64
2022-09-14T04:54:25.686Z,9.75
2022-09-14T04:55:05.883Z,9.98
2022-09-14T04:55:46.669Z,9.76
2022-09-14T04:56:28.722Z,10.06
2022-09-14T04:57:08.765Z,9.77
2022-09-14T04:57:49.360Z,9.91
2022-09-14T04:58:29.709Z,9.81
2022-09-14T04:59:10.824Z,9.40
2022-09-14T04:59:50.707Z,9.77
2022-09-14T05:00:30.831Z,9.64
2022-09-14T05:01:14.691Z,9.23
2022-09-14T05:01:56.819Z,9.55
2022-09-14T05:02:38.798Z,9.51
2022-09-14T05:03:18.967Z,9.73
2022-09-14T05:03:59.694Z,9.98
2022-09-14T05:04:39.806Z,9.86
2022-09-14T05:05:20.717Z,10.13
2022-09-14T05:06:00.708Z,10.01
2022-09-14T05:06:44.676Z,9.51
2022-09-14T05:07:24.753Z,9.35
2022-09-14T05:08:04.683Z,9.77
2022-09-14T05:08:45.741Z,9.74
2022-09-14T05:09:26.722Z,9.79
2022-09-14T05:10:07.560Z,9.55
2022-09-14T05:10:47.657Z,9.56
2022-09-14T05:11:31.816Z,9.70
2022-09-14T05:12:12.677Z,9.70
2022-09-14T05:12:52.753Z,9.59
2022-09-14T05:13:33.666Z,9.44
2022-09-14T05:14:13.820Z,9.23
2022-09-14T05:14:54.791Z,9.09
2022-09-14T05:15:34.865Z,9.12
2022-09-14T05:16:32.663Z,9.21
2022-09-14T05:17:12.761Z,9.70
2022-09-14T05:17:53.714Z,9.40
2022-09-14T05:18:34.762Z,10.15
2022-09-14T05:19:20.672Z,9.95
2022-09-14T05:20:07.705Z,9.93
2022-09-14T05:21:04.042Z,10.23
2022-09-14T05:22:01.674Z,9.69
2022-09-14T05:22:55.688Z,9.57
2022-09-14T05:23:49.710Z,9.73
2022-09-14T05:24:43.641Z,9.81
2022-09-14T05:25:30.681Z,9.84
2022-09-14T05:26:05.716Z,9.77
2022-09-14T05:26:56.054Z,10.01
2022-09-14T05:27:33.834Z,10.02
2022-09-14T05:28:20.670Z,10.31
2022-09-14T05:29:02.913Z,10.21
2022-09-14T05:29:49.660Z,10.44
2022-09-14T05:30:23.708Z,10.75
2022-09-14T05:31:03.766Z,11.05
2022-09-14T05:31:44.724Z,10.99
2022-09-14T05:32:24.640Z,10.54
2022-09-14T05:33:04.704Z,10.94
2022-09-14T05:33:44.681Z,10.90
2022-09-14T05:34:24.716Z,10.95
2022-09-14T05:35:04.661Z,10.86
2022-09-14T05:35:44.741Z,10.40
2022-09-14T05:36:25.671Z,10.84
2022-09-14T05:37:05.717Z,10.63
2022-09-14T05:37:45.625Z,10.54
2022-09-14T05:38:25.694Z,10.57
2022-09-14T05:39:06.645Z,10.54
2022-09-14T05:39:46.741Z,10.32
2022-09-14T05:40:26.753Z,10.82
2022-09-14T05:41:06.749Z,10.79
2022-09-14T05:41:47.665Z,10.46
2022-09-14T05:42:27.731Z,10.11
2022-09-14T05:43:07.634Z,10.02
2022-09-14T05:43:48.686Z,10.19
2022-09-14T05:44:28.621Z,10.38
2022-09-14T05:45:08.720Z,10.96
2022-09-14T05:45:48.679Z,10.41
2022-09-14T05:46:28.717Z,10.00
2022-09-14T05:47:08.681Z,10.21
2022-09-14T05:47:48.726Z,10.15
2022-09-14T05:48:28.656Z,10.16
2022-09-14T05:49:08.715Z,10.01
2022-09-14T05:49:48.634Z,9.98
2022-09-14T05:50:28.738Z,10.24
2022-09-14T05:51:13.608Z,10.11
2022-09-14T05:51:53.682Z,9.98
2022-09-14T05:52:36.649Z,9.52
2022-09-14T05:53:16.688Z,9.23
2022-09-14T05:54:06.632Z,9.02
2022-09-14T05:54:46.694Z,9.61
2022-09-14T05:55:27.652Z,9.46
2022-09-14T05:56:09.691Z,9.19
2022-09-14T05:56:49.634Z,9.26
2022-09-14T05:57:29.693Z,9.41
2022-09-14T05:58:10.682Z,9.18
2022-09-14T05:58:51.746Z,8.89
2022-09-14T05:59:31.619Z,9.01
2022-09-14T06:00:12.749Z,8.94
2022-09-14T06:00:53.693Z,9.68
2022-09-14T06:01:37.726Z,9.40
2022-09-14T06:02:18.408Z,9.32
2022-09-14T06:03:00.709Z,9.07
2022-09-14T06:03:41.628Z,8.77
2022-09-14T06:04:21.688Z,8.70
2022-09-14T06:05:01.689Z,8.85
2022-09-14T06:05:41.944Z,8.84
2022-09-14T06:06:24.619Z,8.86
2022-09-14T06:07:19.757Z,8.94
2022-09-14T06:08:00.638Z,9.06
2022-09-14T06:08:40.667Z,8.93
2022-09-14T06:09:22.687Z,9.26
2022-09-14T06:10:02.727Z,9.25
2022-09-14T06:10:42.614Z,8.86
2022-09-14T06:11:25.680Z,8.89
2022-09-14T06:12:06.622Z,8.90
2022-09-14T06:12:46.713Z,8.84
2022-09-14T06:13:29.629Z,9.16
2022-09-14T06:14:10.802Z,8.76
2022-09-14T06:14:50.641Z,8.57
2022-09-14T06:15:30.708Z,8.81
2022-09-14T06:16:20.641Z,8.80
2022-09-14T06:17:00.762Z,8.66
2022-09-14T06:17:41.613Z,8.15
2022-09-14T06:18:35.590Z,7.99
2022-09-14T06:19:29.622Z,8.20
2022-09-14T06:20:11.881Z,8.85
2022-09-14T06:20:58.821Z,8.35
2022-09-14T06:21:41.597Z,7.60
2022-09-14T06:22:21.744Z,7.40
2022-09-14T06:23:02.598Z,7.40
2022-09-14T06:23:42.642Z,7.04
2022-09-14T06:24:22.610Z,6.82
2022-09-14T06:25:02.785Z,7.00
2022-09-14T06:25:43.659Z,7.14
2022-09-14T06:26:23.713Z,7.18
2022-09-14T06:27:03.589Z,7.25
2022-09-14T06:27:44.681Z,7.26
2022-09-14T06:28:25.595Z,7.45
2022-09-14T06:29:05.714Z,7.16
2022-09-14T06:29:45.622Z,7.35
2022-09-14T06:30:26.501Z,7.16
2022-09-14T06:31:09.891Z,7.14
2022-09-14T06:31:49.661Z,6.85
2022-09-14T06:32:29.610Z,6.89
2022-09-14T06:33:11.677Z,7.05
2022-09-14T06:33:53.600Z,7.34
2022-09-14T06:34:33.668Z,7.34
2022-09-14T06:35:14.613Z,6.65
2022-09-14T06:36:20.629Z,6.51
2022-09-14T06:37:15.595Z,6.59
2022-09-14T06:38:11.665Z,6.36
2022-09-14T06:39:06.610Z,5.96
2022-09-14T06:40:00.684Z,6.09
2022-09-14T06:41:08.593Z,6.45
2022-09-14T06:41:48.651Z,6.63
2022-09-14T06:42:28.678Z,6.50
2022-09-14T06:43:09.577Z,6.56
2022-09-14T06:43:49.722Z,6.46
2022-09-14T06:44:30.596Z,6.20
2022-09-14T06:45:11.616Z,6.07
2022-09-14T06:46:00.639Z,5.96
2022-09-14T06:46:45.697Z,6.16
2022-09-14T06:47:28.626Z,6.31
2022-09-14T06:48:08.706Z,6.05
2022-09-14T06:48:54.670Z,5.59
2022-09-14T06:49:34.651Z,5.39
2022-09-14T06:50:15.601Z,5.40
2022-09-14T06:50:55.693Z,5.47
2022-09-14T06:51:40.614Z,5.03
2022-09-14T06:52:20.860Z,5.43
2022-09-14T06:53:00.656Z,5.88
2022-09-14T06:53:40.663Z,6.13
2022-09-14T06:54:22.589Z,5.68
2022-09-14T06:55:02.671Z,5.47
2022-09-14T06:55:43.589Z,5.24
2022-09-14T06:56:24.636Z,4.89
2022-09-14T06:57:05.597Z,4.74
2022-09-14T06:57:45.732Z,4.91
2022-09-14T06:58:25.633Z,4.81
2022-09-14T06:59:06.700Z,4.88
2022-09-14T06:59:46.592Z,4.61
2022-09-14T07:00:26.821Z,4.78
2022-09-14T07:01:12.565Z,4.49
2022-09-14T07:01:53.667Z,4.35
2022-09-14T07:02:33.636Z,4.40
2022-09-14T07:03:13.741Z,4.40
2022-09-14T07:03:54.595Z,4.57
2022-09-14T07:04:34.633Z,4.89
2022-09-14T07:05:15.587Z,4.55
2022-09-14T07:05:55.654Z,4.14
2022-09-14T07:06:40.612Z,4.14
2022-09-14T07:07:22.703Z,4.04
2022-09-14T07:08:03.563Z,3.76
2022-09-14T07:08:44.729Z,3.51
2022-09-14T07:09:26.579Z,3.58
2022-09-14T07:10:06.612Z,3.85
2022-09-14T07:10:49.566Z,3.90
2022-09-14T07:11:33.697Z,3.80
2022-09-14T07:12:16.593Z,3.66
2022-09-14T07:12:56.738Z,3.70
2022-09-14T07:13:37.566Z,3.69
2022-09-14T07:14:33.603Z,3.67
2022-09-14T07:15:27.567Z,4.05
2022-09-14T07:16:21.544Z,4.15
2022-09-14T07:17:15.532Z,4.30
2022-09-14T07:18:09.570Z,3.92
2022-09-14T07:19:10.562Z,3.92
2022-09-14T07:19:57.577Z,3.90
2022-09-14T07:20:31.617Z,3.74
2022-09-14T07:21:24.587Z,3.72
2022-09-14T07:21:58.633Z,3.69
2022-09-14T07:22:45.548Z,3.83
2022-09-14T07:23:19.597Z,3.71
2022-09-14T07:24:08.746Z,3.79
2022-09-14T07:24:48.685Z,3.88
2022-09-14T07:25:28.648Z,3.30
2022-09-14T07:26:12.608Z,3.50
2022-09-14T07:26:52.553Z,3.47
2022-09-14T07:27:33.631Z,3.55
2022-09-14T07:28:14.535Z,3.64
2022-09-14T07:29:03.696Z,3.60
2022-09-14T07:29:43.512Z,3.81
2022-09-14T07:30:24.975Z,3.53
2022-09-14T07:31:14.569Z,3.20
2022-09-14T07:31:58.637Z,3.19
2022-09-14T07:32:38.552Z,3.03
2022-09-14T07:33:18.613Z,2.97
2022-09-14T07:34:03.551Z,3.20
2022-09-14T07:34:44.599Z,2.94
2022-09-14T07:35:24.553Z,3.28
2022-09-14T07:36:23.539Z,3.29
2022-09-14T07:36:57.278Z,3.16
2022-09-14T07:37:44.741Z,3.03
2022-09-14T07:38:30.595Z,2.96
2022-09-14T07:39:29.569Z,3.24
2022-09-14T07:40:03.400Z,3.35
2022-09-14T07:40:50.526Z,3.25
2022-09-14T07:41:36.585Z,3.31
2022-09-14T07:42:16.826Z,3.22
2022-09-14T07:43:00.541Z,3.29
2022-09-14T07:43:41.673Z,3.33
2022-09-14T07:44:23.561Z,3.24
2022-09-14T07:45:04.674Z,3.09
2022-09-14T07:45:45.639Z,3.04
2022-09-14T07:46:27.740Z,3.10
2022-09-14T07:47:14.625Z,3.21
2022-09-14T07:47:48.611Z,2.92
2022-09-14T07:48:35.548Z,2.81
2022-09-14T07:49:09.710Z,3.05
2022-09-14T07:49:56.580Z,3.19
2022-09-14T07:50:30.766Z,3.19
2022-09-14T07:51:18.576Z,3.25
2022-09-14T07:51:54.941Z,3.16
2022-09-14T07:52:38.564Z,3.09
2022-09-14T07:53:20.668Z,3.33
2022-09-14T07:54:01.613Z,3.21
2022-09-14T07:54:41.870Z,3.11
2022-09-14T07:55:22.554Z,3.13
2022-09-14T07:56:07.409Z,3.09
2022-09-14T07:56:48.517Z,2.86
2022-09-14T07:57:52.327Z,2.65
2022-09-14T07:58:29.575Z,2.94
2022-09-14T07:59:35.042Z,3.10
2022-09-14T08:00:12.521Z,2.88
2022-09-14T08:00:53.802Z,2.63
2022-09-14T08:01:36.604Z,2.71
2022-09-14T08:02:17.719Z,2.75
2022-09-14T08:03:02.603Z,2.60
2022-09-14T08:03:49.648Z,2.53
2022-09-14T08:04:43.536Z,2.54
2022-09-14T08:05:39.553Z,2.45
2022-09-14T08:06:37.544Z,2.51
2022-09-14T08:07:32.618Z,2.39
2022-09-14T08:08:28.521Z,2.39
2022-09-14T08:09:14.579Z,2.45
2022-09-14T08:09:54.611Z,2.39
2022-09-14T08:10:34.606Z,2.39
2022-09-14T08:11:21.618Z,2.25
2022-09-14T08:12:01.556Z,2.35
2022-09-14T08:12:41.670Z,2.46
2022-09-14T08:13:21.537Z,2.34
2022-09-14T08:14:06.698Z,2.01
2022-09-14T08:14:46.524Z,2.08
2022-09-14T08:15:31.747Z,2.42
2022-09-14T08:16:12.537Z,2.14
2022-09-14T08:16:55.294Z,2.10
2022-09-14T08:17:36.512Z,2.14
2022-09-14T08:18:16.623Z,2.25
2022-09-14T08:19:02.520Z,2.55
2022-09-14T08:19:42.591Z,2.51
2022-09-14T08:20:23.625Z,2.39
2022-09-14T08:21:03.710Z,2.46
2022-09-14T08:21:47.212Z,2.41
2022-09-14T08:22:28.615Z,2.34
2022-09-14T08:23:09.537Z,2.60
2022-09-14T08:23:50.642Z,2.31
2022-09-14T08:24:30.495Z,2.30
2022-09-14T08:25:11.597Z,2.34
2022-09-14T08:25:52.618Z,2.58
2022-09-14T08:26:36.313Z,2.51
2022-09-14T08:27:18.526Z,2.33
2022-09-14T08:27:58.605Z,2.16
2022-09-14T08:28:39.591Z,2.21
2022-09-14T08:29:21.607Z,2.20
2022-09-14T08:30:01.636Z,2.17
2022-09-14T08:30:41.629Z,2.21
2022-09-14T08:31:31.630Z,2.17
2022-09-14T08:32:11.672Z,2.24
2022-09-14T08:32:52.516Z,2.10
2022-09-14T08:33:32.601Z,2.05
2022-09-14T08:34:14.519Z,1.98
2022-09-14T08:35:08.518Z,2.08
2022-09-14T08:36:02.523Z,2.17
2022-09-14T08:36:51.546Z,1.96
2022-09-14T08:37:25.581Z,2.15
2022-09-14T08:38:12.516Z,2.00
2022-09-14T08:38:46.605Z,1.89
2022-09-14T08:39:33.493Z,1.98
2022-09-14T08:40:07.599Z,2.04
2022-09-14T08:40:55.502Z,2.06
2022-09-14T08:41:42.718Z,2.29
2022-09-14T08:42:26.658Z,2.44
2022-09-14T08:43:09.643Z,2.19
2022-09-14T08:43:50.654Z,2.15
2022-09-14T08:44:47.541Z,2.21
2022-09-14T08:45:30.561Z,2.05
2022-09-14T08:46:17.697Z,2.16
2022-09-14T08:47:25.457Z,2.15
2022-09-14T08:48:05.503Z,2.09
2022-09-14T08:48:45.556Z,2.00
2022-09-14T08:50:09.512Z,2.22
2022-09-14T08:50:46.560Z,2.44
2022-09-14T08:51:34.461Z,2.41
2022-09-14T08:52:08.606Z,2.17
2022-09-14T08:52:55.491Z,2.01
2022-09-14T08:53:35.750Z,2.03
2022-09-14T08:54:17.469Z,2.14
2022-09-14T08:55:02.550Z,2.22
2022-09-14T08:56:07.505Z,1.90
2022-09-14T08:56:51.533Z,1.88
2022-09-14T08:57:49.499Z,2.00
2022-09-14T08:59:20.524Z,1.90
2022-09-14T09:00:20.522Z,1.99
2022-09-14T09:01:23.556Z,1.99
2022-09-14T09:02:07.537Z,1.80
2022-09-14T09:03:16.563Z,1.63
2022-09-14T09:04:57.524Z,1.84
2022-09-14T09:06:55.565Z,2.10
2022-09-14T09:07:57.442Z,1.80
2022-09-14T09:09:41.504Z,1.51
2022-09-14T09:10:21.573Z,1.79
2022-09-14T09:11:01.672Z,1.89
2022-09-14T09:11:56.452Z,1.73
2022-09-14T09:12:55.604Z,1.79
2022-09-14T09:13:43.476Z,1.95
2022-09-14T09:14:38.490Z,2.00
2022-09-14T09:15:38.537Z,1.74
2022-09-14T09:16:19.592Z,1.70
2022-09-14T09:17:03.469Z,1.69
2022-09-14T09:17:51.582Z,1.70
2022-09-14T09:18:51.452Z,1.56
2022-09-14T09:19:45.565Z,1.76
2022-09-14T09:20:34.453Z,1.80
2022-09-14T09:21:22.462Z,1.88
2022-09-14T09:21:56.544Z,1.75
2022-09-14T09:22:49.475Z,1.71
2022-09-14T09:23:29.551Z,1.90
2022-09-14T09:24:37.521Z,1.88
2022-09-14T09:25:29.472Z,1.79
2022-09-14T09:26:14.543Z,1.76
2022-09-14T09:26:54.563Z,1.83
2022-09-14T09:27:34.573Z,1.81
2022-09-14T09:28:19.476Z,1.88
2022-09-14T09:29:03.745Z,1.73
2022-09-14T09:29:43.483Z,1.67
2022-09-14T09:30:24.530Z,1.65
2022-09-14T09:31:14.654Z,1.71
2022-09-14T09:32:08.590Z,1.64
2022-09-14T09:32:42.601Z,1.75
2022-09-14T09:33:35.401Z,1.80
2022-09-14T09:34:14.887Z,1.76
2022-09-14T09:35:01.467Z,1.67
2022-09-14T09:35:35.216Z,1.69
2022-09-14T09:36:26.473Z,1.90
2022-09-14T09:37:00.922Z,1.70
2022-09-14T09:37:45.546Z,1.65
2022-09-14T09:38:27.672Z,1.60
2022-09-14T09:39:05.156Z,1.65
2022-09-14T09:39:46.477Z,1.69
2022-09-14T09:40:44.942Z,1.40
2022-09-14T09:41:21.908Z,1.61
2022-09-14T09:42:14.493Z,1.73
2022-09-14T09:43:28.922Z,1.63
2022-09-14T09:44:12.154Z,1.52
2022-09-14T09:45:18.421Z,1.61
2022-09-14T09:46:07.098Z,1.61
2022-09-14T09:47:11.411Z,1.55
2022-09-14T09:47:47.389Z,1.52
2022-09-14T09:48:52.455Z,1.63
2022-09-14T09:49:40.809Z,1.49
2022-09-14T09:50:27.434Z,1.38
2022-09-14T09:51:33.551Z,1.60
2022-09-14T09:52:29.450Z,2.38
2022-09-14T09:53:06.643Z,3.72
2022-09-14T09:54:20.457Z,3.63
2022-09-14T09:54:55.432Z,1.83
2022-09-14T09:55:51.430Z,1.56
2022-09-14T09:56:33.449Z,1.45
2022-09-14T09:57:46.437Z,1.65
2022-09-14T09:58:21.701Z,1.60
2022-09-14T09:59:08.413Z,1.44
2022-09-14T09:59:50.444Z,1.46
2022-09-14T10:00:37.451Z,1.38
2022-09-14T10:01:36.554Z,1.30
2022-09-14T10:02:37.612Z,1.52
2022-09-14T10:03:40.576Z,1.74
2022-09-14T10:04:30.720Z,1.63
2022-09-14T10:05:31.501Z,1.69
2022-09-14T10:06:22.533Z,1.71
2022-09-14T10:07:04.444Z,1.58
2022-09-14T10:07:56.103Z,1.40
2022-09-14T10:08:41.409Z,1.48
2022-09-14T10:09:27.586Z,1.45
2022-09-14T10:10:17.450Z,1.38
2022-09-14T10:10:58.436Z,1.33
2022-09-14T10:11:37.765Z,1.36
2022-09-14T10:12:15.619Z,1.29
2022-09-14T10:13:01.397Z,1.25